Formoso, Kansas
Current Conditions -  °F | °C
As of 3:55 AM on Friday 24 Oct 2014 (Local Time) from KCNK Reporting Station
Haze Haze  
Wind Chill: 60°   Ceiling: Unl
Heat Index: 60°   Visibility: 4mi
Dew Point: 59°   Wind: 12mph
Humidity: 96%   Direction: 180°S
Pressure: 30"   Gusts: NA
Location:  39.78°N, 97.99°W
Report Text: KCNK 240855Z AUTO 18010KT 4SM BR CLR 16/15 A3000 RMK AO2 SLP149 T01560150 58010
Loading
Personal Weather Stations






























Interactive Weather Map
Tropical Storm Tracking
New forecast layout! Learn more

10-Day Weather Forecast

Advertisements
Track Severe Weather on mobile